sensor_id;sensor_type;location;lat;lon;timestamp;P1;durP1;ratioP1;P2;durP2;ratioP2
68942;SDS011;60852;52.190;4.422;2024-03-23T00:54:35;7.21;;;4.89;;
68942;SDS011;60852;52.190;4.422;2024-03-23T00:57:01;6.83;;;4.57;;
68942;SDS011;60852;52.190;4.422;2024-03-23T00:59:27;8.55;;;5.51;;
68942;SDS011;60852;52.190;4.422;2024-03-23T01:01:53;9.20;;;5.87;;
68942;SDS011;60852;52.190;4.422;2024-03-23T01:04:19;8.90;;;5.65;;
68942;SDS011;60852;52.190;4.422;2024-03-23T01:06:45;8.47;;;5.40;;
68942;SDS011;60852;52.190;4.422;2024-03-23T01:09:10;8.61;;;5.55;;
68942;SDS011;60852;52.190;4.422;2024-03-23T01:11:36;8.98;;;5.78;;
68942;SDS011;60852;52.190;4.422;2024-03-23T01:14:02;9.10;;;5.74;;
68942;SDS011;60852;52.190;4.422;2024-03-23T01:16:28;8.39;;;5.31;;
68942;SDS011;60852;52.190;4.422;2024-03-23T01:18:53;9.01;;;5.71;;
68942;SDS011;60852;52.190;4.422;2024-03-23T01:21:19;10.88;;;6.85;;
68942;SDS011;60852;52.190;4.422;2024-03-23T01:23:44;8.99;;;5.88;;
68942;SDS011;60852;52.190;4.422;2024-03-23T01:26:10;7.55;;;4.92;;
68942;SDS011;60852;52.190;4.422;2024-03-23T01:28:35;8.75;;;5.69;;
68942;SDS011;60852;52.190;4.422;2024-03-23T01:31:01;8.52;;;5.48;;
68942;SDS011;60852;52.190;4.422;2024-03-23T01:33:27;8.55;;;5.41;;
68942;SDS011;60852;52.190;4.422;2024-03-23T01:35:52;8.94;;;5.67;;
68942;SDS011;60852;52.190;4.422;2024-03-23T01:38:18;8.42;;;5.30;;
68942;SDS011;60852;52.190;4.422;2024-03-23T01:40:43;8.81;;;5.60;;
68942;SDS011;60852;52.190;4.422;2024-03-23T01:43:09;8.12;;;5.18;;
68942;SDS011;60852;52.190;4.422;2024-03-23T01:45:34;8.80;;;5.54;;
68942;SDS011;60852;52.190;4.422;2024-03-23T01:48:00;8.87;;;5.60;;
68942;SDS011;60852;52.190;4.422;2024-03-23T01:50:27;8.81;;;5.58;;
68942;SDS011;60852;52.190;4.422;2024-03-23T01:52:58;8.59;;;5.49;;
68942;SDS011;60852;52.190;4.422;2024-03-23T01:55:23;9.23;;;5.80;;
68942;SDS011;60852;52.190;4.422;2024-03-23T01:57:50;9.72;;;6.06;;
68942;SDS011;60852;52.190;4.422;2024-03-23T02:00:16;9.09;;;5.66;;
68942;SDS011;60852;52.190;4.422;2024-03-23T02:02:43;8.96;;;5.62;;
68942;SDS011;60852;52.190;4.422;2024-03-23T02:05:11;8.66;;;5.46;;
68942;SDS011;60852;52.190;4.422;2024-03-23T02:07:40;8.52;;;5.51;;
68942;SDS011;60852;52.190;4.422;2024-03-23T02:10:08;7.38;;;4.83;;
68942;SDS011;60852;52.190;4.422;2024-03-23T02:12:35;7.11;;;4.69;;
68942;SDS011;60852;52.190;4.422;2024-03-23T02:15:00;7.72;;;4.94;;
68942;SDS011;60852;52.190;4.422;2024-03-23T02:17:26;7.60;;;4.85;;
68942;SDS011;60852;52.190;4.422;2024-03-23T02:19:53;7.43;;;4.76;;
68942;SDS011;60852;52.190;4.422;2024-03-23T02:22:18;6.57;;;4.22;;
68942;SDS011;60852;52.190;4.422;2024-03-23T02:24:43;6.98;;;4.41;;
68942;SDS011;60852;52.190;4.422;2024-03-23T02:27:09;6.87;;;4.33;;
68942;SDS011;60852;52.190;4.422;2024-03-23T02:29:35;7.62;;;4.74;;
68942;SDS011;60852;52.190;4.422;2024-03-23T02:32:00;6.18;;;3.90;;
68942;SDS011;60852;52.190;4.422;2024-03-23T02:34:26;7.25;;;4.54;;
68942;SDS011;60852;52.190;4.422;2024-03-23T02:36:52;6.60;;;4.14;;
68942;SDS011;60852;52.190;4.422;2024-03-23T02:39:17;6.92;;;4.32;;
68942;SDS011;60852;52.190;4.422;2024-03-23T02:41:43;6.91;;;4.34;;
68942;SDS011;60852;52.190;4.422;2024-03-23T02:44:08;6.93;;;4.40;;
68942;SDS011;60852;52.190;4.422;2024-03-23T02:46:37;6.34;;;3.94;;
68942;SDS011;60852;52.190;4.422;2024-03-23T02:49:05;6.53;;;4.07;;
68942;SDS011;60852;52.190;4.422;2024-03-23T02:51:31;6.75;;;4.29;;
68942;SDS011;60852;52.190;4.422;2024-03-23T02:53:57;8.37;;;5.30;;
68942;SDS011;60852;52.190;4.422;2024-03-23T02:56:22;10.18;;;6.64;;
68942;SDS011;60852;52.190;4.422;2024-03-23T02:58:48;7.23;;;4.78;;
68942;SDS011;60852;52.190;4.422;2024-03-23T03:01:13;7.75;;;5.03;;
68942;SDS011;60852;52.190;4.422;2024-03-23T03:03:39;7.14;;;4.68;;
68942;SDS011;60852;52.190;4.422;2024-03-23T03:06:04;7.42;;;5.03;;
68942;SDS011;60852;52.190;4.422;2024-03-23T03:08:30;7.35;;;4.93;;
68942;SDS011;60852;52.190;4.422;2024-03-23T03:10:55;7.08;;;4.75;;
68942;SDS011;60852;52.190;4.422;2024-03-23T03:13:21;6.99;;;4.64;;
68942;SDS011;60852;52.190;4.422;2024-03-23T03:15:46;7.59;;;5.03;;
68942;SDS011;60852;52.190;4.422;2024-03-23T03:18:12;7.58;;;5.07;;
68942;SDS011;60852;52.190;4.422;2024-03-23T03:20:40;6.73;;;4.50;;
68942;SDS011;60852;52.190;4.422;2024-03-23T03:23:06;7.48;;;4.93;;
68942;SDS011;60852;52.190;4.422;2024-03-23T03:25:32;8.01;;;5.36;;
68942;SDS011;60852;52.190;4.422;2024-03-23T03:27:59;6.43;;;4.37;;
68942;SDS011;60852;52.190;4.422;2024-03-23T03:30:25;6.93;;;4.63;;
68942;SDS011;60852;52.190;4.422;2024-03-23T03:32:52;6.61;;;4.46;;
68942;SDS011;60852;52.190;4.422;2024-03-23T03:35:19;6.84;;;4.55;;
68942;SDS011;60852;52.190;4.422;2024-03-23T03:37:44;6.67;;;4.43;;
68942;SDS011;60852;52.190;4.422;2024-03-23T03:40:10;7.67;;;4.99;;
68942;SDS011;60852;52.190;4.422;2024-03-23T03:42:36;6.88;;;4.47;;
68942;SDS011;60852;52.190;4.422;2024-03-23T03:45:02;6.96;;;4.55;;
68942;SDS011;60852;52.190;4.422;2024-03-23T03:47:29;6.89;;;4.54;;
68942;SDS011;60852;52.190;4.422;2024-03-23T03:49:55;6.73;;;4.47;;
68942;SDS011;60852;52.190;4.422;2024-03-23T03:52:20;7.06;;;4.64;;
68942;SDS011;60852;52.190;4.422;2024-03-23T03:54:46;6.15;;;4.14;;
68942;SDS011;60852;52.190;4.422;2024-03-23T03:57:11;6.67;;;4.48;;
68942;SDS011;60852;52.190;4.422;2024-03-23T03:59:37;7.02;;;4.71;;
68942;SDS011;60852;52.190;4.422;2024-03-23T04:02:02;6.89;;;4.64;;
68942;SDS011;60852;52.190;4.422;2024-03-23T04:04:28;5.91;;;4.05;;
68942;SDS011;60852;52.190;4.422;2024-03-23T04:06:59;7.22;;;4.95;;
68942;SDS011;60852;52.190;4.422;2024-03-23T04:09:26;6.99;;;4.73;;
68942;SDS011;60852;52.190;4.422;2024-03-23T04:11:51;7.33;;;4.93;;
68942;SDS011;60852;52.190;4.422;2024-03-23T04:14:17;7.05;;;4.81;;
68942;SDS011;60852;52.190;4.422;2024-03-23T04:16:42;7.95;;;5.47;;
68942;SDS011;60852;52.190;4.422;2024-03-23T04:19:08;6.41;;;4.46;;
68942;SDS011;60852;52.190;4.422;2024-03-23T04:21:34;6.57;;;4.59;;
68942;SDS011;60852;52.190;4.422;2024-03-23T04:24:01;6.43;;;4.52;;
68942;SDS011;60852;52.190;4.422;2024-03-23T04:26:26;6.82;;;4.77;;
68942;SDS011;60852;52.190;4.422;2024-03-23T04:28:52;8.41;;;5.76;;
68942;SDS011;60852;52.190;4.422;2024-03-23T04:31:18;7.24;;;5.05;;
68942;SDS011;60852;52.190;4.422;2024-03-23T04:33:44;7.09;;;5.01;;
68942;SDS011;60852;52.190;4.422;2024-03-23T04:36:09;7.19;;;5.05;;
68942;SDS011;60852;52.190;4.422;2024-03-23T04:38:35;8.52;;;6.02;;
68942;SDS011;60852;52.190;4.422;2024-03-23T04:41:01;7.94;;;5.67;;
68942;SDS011;60852;52.190;4.422;2024-03-23T04:43:27;7.14;;;5.19;;
68942;SDS011;60852;52.190;4.422;2024-03-23T04:45:52;7.01;;;5.08;;
68942;SDS011;60852;52.190;4.422;2024-03-23T04:48:20;7.62;;;5.55;;
68942;SDS011;60852;52.190;4.422;2024-03-23T04:50:47;6.83;;;5.16;;
68942;SDS011;60852;52.190;4.422;2024-03-23T04:53:14;7.57;;;5.53;;
68942;SDS011;60852;52.190;4.422;2024-03-23T04:55:40;6.76;;;4.95;;
68942;SDS011;60852;52.190;4.422;2024-03-23T04:58:06;7.26;;;5.36;;
68942;SDS011;60852;52.190;4.422;2024-03-23T05:00:31;7.64;;;5.62;;
68942;SDS011;60852;52.190;4.422;2024-03-23T05:02:57;6.58;;;5.06;;
68942;SDS011;60852;52.190;4.422;2024-03-23T05:05:22;6.36;;;4.98;;
68942;SDS011;60852;52.190;4.422;2024-03-23T05:07:48;6.60;;;5.23;;
68942;SDS011;60852;52.190;4.422;2024-03-23T05:10:13;6.62;;;5.38;;
68942;SDS011;60852;52.190;4.422;2024-03-23T05:12:39;6.11;;;5.16;;
68942;SDS011;60852;52.190;4.422;2024-03-23T05:15:05;5.99;;;5.13;;
68942;SDS011;60852;52.190;4.422;2024-03-23T05:17:32;6.18;;;5.33;;
68942;SDS011;60852;52.190;4.422;2024-03-23T05:19:59;6.73;;;5.76;;
68942;SDS011;60852;52.190;4.422;2024-03-23T05:22:25;7.22;;;6.04;;
68942;SDS011;60852;52.190;4.422;2024-03-23T05:24:50;7.32;;;6.35;;
68942;SDS011;60852;52.190;4.422;2024-03-23T05:27:16;7.19;;;6.17;;
68942;SDS011;60852;52.190;4.422;2024-03-23T05:29:41;6.80;;;5.94;;
68942;SDS011;60852;52.190;4.422;2024-03-23T05:32:07;7.37;;;6.15;;
68942;SDS011;60852;52.190;4.422;2024-03-23T05:34:32;7.32;;;6.28;;
68942;SDS011;60852;52.190;4.422;2024-03-23T05:36:58;6.35;;;5.51;;
68942;SDS011;60852;52.190;4.422;2024-03-23T05:39:24;6.77;;;5.83;;
68942;SDS011;60852;52.190;4.422;2024-03-23T05:41:49;7.56;;;6.47;;
68942;SDS011;60852;52.190;4.422;2024-03-23T05:44:15;7.48;;;6.53;;
68942;SDS011;60852;52.190;4.422;2024-03-23T05:46:40;6.55;;;5.75;;
68942;SDS011;60852;52.190;4.422;2024-03-23T05:49:06;6.59;;;5.73;;
68942;SDS011;60852;52.190;4.422;2024-03-23T05:51:32;6.84;;;5.75;;
68942;SDS011;60852;52.190;4.422;2024-03-23T05:53:58;6.33;;;5.14;;
68942;SDS011;60852;52.190;4.422;2024-03-23T05:56:23;6.77;;;5.34;;
68942;SDS011;60852;52.190;4.422;2024-03-23T05:58:51;7.06;;;5.54;;
68942;SDS011;60852;52.190;4.422;2024-03-23T06:01:16;7.87;;;6.14;;
68942;SDS011;60852;52.190;4.422;2024-03-23T06:03:42;7.25;;;5.74;;
68942;SDS011;60852;52.190;4.422;2024-03-23T06:06:09;7.38;;;5.56;;
68942;SDS011;60852;52.190;4.422;2024-03-23T06:08:37;6.60;;;5.03;;
68942;SDS011;60852;52.190;4.422;2024-03-23T06:11:03;6.37;;;4.83;;
68942;SDS011;60852;52.190;4.422;2024-03-23T06:13:29;7.09;;;5.33;;
68942;SDS011;60852;52.190;4.422;2024-03-23T06:15:55;6.97;;;5.04;;
68942;SDS011;60852;52.190;4.422;2024-03-23T06:18:21;6.94;;;5.02;;
68942;SDS011;60852;52.190;4.422;2024-03-23T06:20:46;6.57;;;4.74;;
68942;SDS011;60852;52.190;4.422;2024-03-23T06:23:12;7.14;;;5.11;;
68942;SDS011;60852;52.190;4.422;2024-03-23T06:25:38;7.16;;;5.13;;
68942;SDS011;60852;52.190;4.422;2024-03-23T06:28:04;7.52;;;5.43;;
68942;SDS011;60852;52.190;4.422;2024-03-23T06:30:29;7.66;;;5.42;;
68942;SDS011;60852;52.190;4.422;2024-03-23T06:32:57;7.58;;;5.35;;
68942;SDS011;60852;52.190;4.422;2024-03-23T06:35:22;7.91;;;5.64;;
68942;SDS011;60852;52.190;4.422;2024-03-23T06:37:48;7.81;;;5.56;;
68942;SDS011;60852;52.190;4.422;2024-03-23T06:40:14;7.74;;;5.55;;
68942;SDS011;60852;52.190;4.422;2024-03-23T06:42:39;7.20;;;5.18;;
68942;SDS011;60852;52.190;4.422;2024-03-23T06:45:05;8.67;;;6.05;;
68942;SDS011;60852;52.190;4.422;2024-03-23T06:47:32;7.83;;;5.47;;
68942;SDS011;60852;52.190;4.422;2024-03-23T06:49:58;7.81;;;5.51;;
68942;SDS011;60852;52.190;4.422;2024-03-23T06:52:26;7.92;;;5.56;;
68942;SDS011;60852;52.190;4.422;2024-03-23T06:54:52;7.56;;;5.35;;
68942;SDS011;60852;52.190;4.422;2024-03-23T06:57:18;7.73;;;5.36;;
68942;SDS011;60852;52.190;4.422;2024-03-23T06:59:43;9.55;;;6.35;;
68942;SDS011;60852;52.190;4.422;2024-03-23T07:02:09;8.84;;;5.91;;
68942;SDS011;60852;52.190;4.422;2024-03-23T07:04:35;8.07;;;5.39;;
68942;SDS011;60852;52.190;4.422;2024-03-23T07:07:01;8.57;;;5.72;;
68942;SDS011;60852;52.190;4.422;2024-03-23T07:09:30;7.80;;;5.23;;
68942;SDS011;60852;52.190;4.422;2024-03-23T07:11:56;8.16;;;5.74;;
68942;SDS011;60852;52.190;4.422;2024-03-23T07:14:22;8.07;;;5.56;;
68942;SDS011;60852;52.190;4.422;2024-03-23T07:16:48;6.42;;;4.51;;
68942;SDS011;60852;52.190;4.422;2024-03-23T07:19:15;7.71;;;5.25;;
68942;SDS011;60852;52.190;4.422;2024-03-23T07:21:41;7.55;;;5.13;;
68942;SDS011;60852;52.190;4.422;2024-03-23T07:24:07;6.82;;;4.66;;
68942;SDS011;60852;52.190;4.422;2024-03-23T07:26:33;7.38;;;5.06;;
68942;SDS011;60852;52.190;4.422;2024-03-23T07:28:59;7.66;;;5.27;;
68942;SDS011;60852;52.190;4.422;2024-03-23T07:31:24;6.64;;;4.63;;
68942;SDS011;60852;52.190;4.422;2024-03-23T07:33:50;7.26;;;5.03;;
68942;SDS011;60852;52.190;4.422;2024-03-23T07:36:15;7.43;;;5.06;;
68942;SDS011;60852;52.190;4.422;2024-03-23T07:38:41;7.37;;;5.08;;
68942;SDS011;60852;52.190;4.422;2024-03-23T07:41:08;7.39;;;5.13;;
68942;SDS011;60852;52.190;4.422;2024-03-23T07:43:36;6.79;;;4.85;;
68942;SDS011;60852;52.190;4.422;2024-03-23T07:46:03;7.19;;;5.05;;
68942;SDS011;60852;52.190;4.422;2024-03-23T07:48:29;6.96;;;4.81;;
68942;SDS011;60852;52.190;4.422;2024-03-23T07:50:57;7.96;;;5.44;;
68942;SDS011;60852;52.190;4.422;2024-03-23T07:53:23;7.25;;;4.91;;
68942;SDS011;60852;52.190;4.422;2024-03-23T07:55:55;8.13;;;5.41;;
68942;SDS011;60852;52.190;4.422;2024-03-23T07:58:24;7.85;;;5.25;;
68942;SDS011;60852;52.190;4.422;2024-03-23T08:00:51;8.50;;;5.68;;
68942;SDS011;60852;52.190;4.422;2024-03-23T08:03:18;8.45;;;5.75;;
68942;SDS011;60852;52.190;4.422;2024-03-23T08:05:43;8.54;;;5.91;;
68942;SDS011;60852;52.190;4.422;2024-03-23T08:08:09;8.14;;;5.63;;
68942;SDS011;60852;52.190;4.422;2024-03-23T08:10:36;8.07;;;5.58;;
68942;SDS011;60852;52.190;4.422;2024-03-23T08:13:01;7.23;;;5.11;;
68942;SDS011;60852;52.190;4.422;2024-03-23T08:15:29;7.24;;;5.24;;
68942;SDS011;60852;52.190;4.422;2024-03-23T08:17:58;7.56;;;5.61;;
68942;SDS011;60852;52.190;4.422;2024-03-23T08:20:23;6.41;;;4.88;;
68942;SDS011;60852;52.190;4.422;2024-03-23T08:22:49;7.65;;;5.79;;
68942;SDS011;60852;52.190;4.422;2024-03-23T08:25:14;7.28;;;5.57;;
68942;SDS011;60852;52.190;4.422;2024-03-23T08:27:40;7.78;;;5.96;;
68942;SDS011;60852;52.190;4.422;2024-03-23T08:30:06;7.63;;;5.88;;
68942;SDS011;60852;52.190;4.422;2024-03-23T08:32:32;8.28;;;6.19;;
68942;SDS011;60852;52.190;4.422;2024-03-23T08:34:57;8.92;;;6.55;;
68942;SDS011;60852;52.190;4.422;2024-03-23T08:37:23;8.18;;;6.49;;
68942;SDS011;60852;52.190;4.422;2024-03-23T08:39:50;6.84;;;5.42;;
68942;SDS011;60852;52.190;4.422;2024-03-23T08:42:16;6.86;;;5.31;;
68942;SDS011;60852;52.190;4.422;2024-03-23T08:44:43;7.70;;;5.45;;
68942;SDS011;60852;52.190;4.422;2024-03-23T08:47:11;8.18;;;5.56;;
68942;SDS011;60852;52.190;4.422;2024-03-23T08:49:37;8.19;;;5.48;;
68942;SDS011;60852;52.190;4.422;2024-03-23T08:52:02;8.37;;;5.61;;
68942;SDS011;60852;52.190;4.422;2024-03-23T08:54:28;8.58;;;5.70;;
68942;SDS011;60852;52.190;4.422;2024-03-23T08:56:55;8.90;;;5.82;;
68942;SDS011;60852;52.190;4.422;2024-03-23T08:59:20;9.10;;;5.96;;
68942;SDS011;60852;52.190;4.422;2024-03-23T09:01:46;7.70;;;5.21;;
68942;SDS011;60852;52.190;4.422;2024-03-23T09:04:11;7.64;;;5.26;;
68942;SDS011;60852;52.190;4.422;2024-03-23T09:06:37;8.44;;;5.75;;
68942;SDS011;60852;52.190;4.422;2024-03-23T09:09:02;8.39;;;5.60;;
68942;SDS011;60852;52.190;4.422;2024-03-23T09:11:28;8.49;;;5.72;;
68942;SDS011;60852;52.190;4.422;2024-03-23T09:13:53;8.44;;;5.70;;
68942;SDS011;60852;52.190;4.422;2024-03-23T09:16:19;9.29;;;6.15;;
68942;SDS011;60852;52.190;4.422;2024-03-23T09:18:44;8.25;;;5.59;;
68942;SDS011;60852;52.190;4.422;2024-03-23T09:21:13;8.73;;;5.92;;
68942;SDS011;60852;52.190;4.422;2024-03-23T09:23:39;8.41;;;5.60;;
68942;SDS011;60852;52.190;4.422;2024-03-23T09:26:05;8.42;;;5.61;;
68942;SDS011;60852;52.190;4.422;2024-03-23T09:28:34;8.13;;;5.41;;
68942;SDS011;60852;52.190;4.422;2024-03-23T09:31:06;9.66;;;6.26;;
68942;SDS011;60852;52.190;4.422;2024-03-23T09:33:33;8.65;;;5.75;;
68942;SDS011;60852;52.190;4.422;2024-03-23T09:36:03;8.02;;;5.38;;
68942;SDS011;60852;52.190;4.422;2024-03-23T09:38:29;9.36;;;6.35;;
68942;SDS011;60852;52.190;4.422;2024-03-23T09:40:55;7.85;;;5.62;;
68942;SDS011;60852;52.190;4.422;2024-03-23T09:43:22;7.37;;;5.21;;
68942;SDS011;60852;52.190;4.422;2024-03-23T09:45:47;8.18;;;5.60;;
68942;SDS011;60852;52.190;4.422;2024-03-23T09:48:14;7.25;;;5.03;;
68942;SDS011;60852;52.190;4.422;2024-03-23T09:50:41;6.87;;;4.87;;
68942;SDS011;60852;52.190;4.422;2024-03-23T09:53:08;7.11;;;4.94;;
68942;SDS011;60852;52.190;4.422;2024-03-23T09:55:39;7.92;;;5.52;;
68942;SDS011;60852;52.190;4.422;2024-03-23T09:58:12;7.46;;;5.36;;
68942;SDS011;60852;52.190;4.422;2024-03-23T10:00:41;8.05;;;5.68;;
68942;SDS011;60852;52.190;4.422;2024-03-23T10:03:06;8.08;;;5.56;;
68942;SDS011;60852;52.190;4.422;2024-03-23T10:05:32;8.21;;;5.52;;
68942;SDS011;60852;52.190;4.422;2024-03-23T10:10:38;8.49;;;5.69;;
68942;SDS011;60852;52.190;4.422;2024-03-23T10:13:04;9.33;;;6.17;;
68942;SDS011;60852;52.190;4.422;2024-03-23T10:15:29;8.51;;;5.63;;
68942;SDS011;60852;52.190;4.422;2024-03-23T10:17:58;9.26;;;6.12;;
68942;SDS011;60852;52.190;4.422;2024-03-23T10:20:43;8.51;;;5.64;;
68942;SDS011;60852;52.190;4.422;2024-03-23T10:23:18;8.80;;;5.86;;
68942;SDS011;60852;52.190;4.422;2024-03-23T10:25:43;7.53;;;5.19;;
68942;SDS011;60852;52.190;4.422;2024-03-23T10:28:09;8.13;;;5.66;;
68942;SDS011;60852;52.190;4.422;2024-03-23T10:30:36;7.14;;;5.12;;
68942;SDS011;60852;52.190;4.422;2024-03-23T10:33:08;7.73;;;5.48;;
68942;SDS011;60852;52.190;4.422;2024-03-23T10:35:36;8.45;;;5.79;;
68942;SDS011;60852;52.190;4.422;2024-03-23T10:38:03;8.37;;;5.78;;
68942;SDS011;60852;52.190;4.422;2024-03-23T10:40:31;8.37;;;5.75;;
68942;SDS011;60852;52.190;4.422;2024-03-23T10:42:59;7.04;;;4.94;;
68942;SDS011;60852;52.190;4.422;2024-03-23T10:45:25;8.01;;;5.59;;
68942;SDS011;60852;52.190;4.422;2024-03-23T10:47:51;7.85;;;5.49;;
68942;SDS011;60852;52.190;4.422;2024-03-23T10:50:17;7.52;;;5.23;;
68942;SDS011;60852;52.190;4.422;2024-03-23T10:52:44;8.00;;;5.59;;
68942;SDS011;60852;52.190;4.422;2024-03-23T10:55:13;8.97;;;6.52;;
68942;SDS011;60852;52.190;4.422;2024-03-23T10:57:48;7.93;;;6.08;;
68942;SDS011;60852;52.190;4.422;2024-03-23T11:00:23;8.68;;;6.78;;
68942;SDS011;60852;52.190;4.422;2024-03-23T11:02:50;6.29;;;5.05;;
68942;SDS011;60852;52.190;4.422;2024-03-23T11:07:50;7.13;;;5.32;;
68942;SDS011;60852;52.190;4.422;2024-03-23T11:10:29;6.75;;;4.97;;
68942;SDS011;60852;52.190;4.422;2024-03-23T11:15:49;7.60;;;5.25;;
68942;SDS011;60852;52.190;4.422;2024-03-23T11:18:20;7.00;;;4.79;;
68942;SDS011;60852;52.190;4.422;2024-03-23T11:20:46;8.00;;;5.32;;
68942;SDS011;60852;52.190;4.422;2024-03-23T11:26:07;7.26;;;4.81;;
68942;SDS011;60852;52.190;4.422;2024-03-23T11:28:32;7.99;;;5.32;;
68942;SDS011;60852;52.190;4.422;2024-03-23T11:30:58;8.05;;;5.38;;
68942;SDS011;60852;52.190;4.422;2024-03-23T11:33:23;7.81;;;5.18;;
68942;SDS011;60852;52.190;4.422;2024-03-23T11:35:49;9.25;;;6.06;;
68942;SDS011;60852;52.190;4.422;2024-03-23T11:38:17;9.10;;;5.95;;
68942;SDS011;60852;52.190;4.422;2024-03-23T11:40:47;8.74;;;5.69;;
68942;SDS011;60852;52.190;4.422;2024-03-23T11:43:15;7.40;;;4.99;;
68942;SDS011;60852;52.190;4.422;2024-03-23T11:45:43;7.59;;;5.05;;
68942;SDS011;60852;52.190;4.422;2024-03-23T11:48:20;7.46;;;4.97;;
68942;SDS011;60852;52.190;4.422;2024-03-23T11:50:47;7.65;;;5.11;;
68942;SDS011;60852;52.190;4.422;2024-03-23T11:53:20;8.16;;;5.48;;
68942;SDS011;60852;52.190;4.422;2024-03-23T11:55:58;7.89;;;5.32;;
68942;SDS011;60852;52.190;4.422;2024-03-23T11:58:28;9.22;;;6.20;;
68942;SDS011;60852;52.190;4.422;2024-03-23T12:00:57;9.97;;;6.60;;
68942;SDS011;60852;52.190;4.422;2024-03-23T12:03:23;9.26;;;6.05;;
68942;SDS011;60852;52.190;4.422;2024-03-23T12:06:00;7.80;;;5.21;;
68942;SDS011;60852;52.190;4.422;2024-03-23T12:08:30;9.11;;;6.00;;
68942;SDS011;60852;52.190;4.422;2024-03-23T12:11:13;8.61;;;5.68;;
68942;SDS011;60852;52.190;4.422;2024-03-23T12:13:40;7.76;;;5.25;;
68942;SDS011;60852;52.190;4.422;2024-03-23T12:16:15;7.27;;;5.08;;
68942;SDS011;60852;52.190;4.422;2024-03-23T12:18:43;7.20;;;5.01;;
68942;SDS011;60852;52.190;4.422;2024-03-23T12:21:10;7.33;;;5.04;;
68942;SDS011;60852;52.190;4.422;2024-03-23T12:23:35;7.09;;;4.84;;
68942;SDS011;60852;52.190;4.422;2024-03-23T12:26:04;6.98;;;4.74;;
68942;SDS011;60852;52.190;4.422;2024-03-23T12:28:29;7.08;;;4.86;;
68942;SDS011;60852;52.190;4.422;2024-03-23T12:30:55;6.27;;;4.33;;
68942;SDS011;60852;52.190;4.422;2024-03-23T12:33:20;5.80;;;3.99;;
68942;SDS011;60852;52.190;4.422;2024-03-23T12:35:47;6.40;;;4.27;;
68942;SDS011;60852;52.190;4.422;2024-03-23T12:38:13;5.96;;;3.91;;
68942;SDS011;60852;52.190;4.422;2024-03-23T12:40:38;6.80;;;4.41;;
68942;SDS011;60852;52.190;4.422;2024-03-23T12:43:04;6.50;;;4.12;;
68942;SDS011;60852;52.190;4.422;2024-03-23T12:45:29;8.04;;;5.18;;
68942;SDS011;60852;52.190;4.422;2024-03-23T12:47:54;8.28;;;5.46;;
68942;SDS011;60852;52.190;4.422;2024-03-23T12:50:20;7.64;;;5.12;;
68942;SDS011;60852;52.190;4.422;2024-03-23T12:52:46;8.49;;;5.71;;
68942;SDS011;60852;52.190;4.422;2024-03-23T12:55:12;8.14;;;5.52;;
68942;SDS011;60852;52.190;4.422;2024-03-23T12:57:37;7.47;;;5.08;;
68942;SDS011;60852;52.190;4.422;2024-03-23T13:00:03;7.15;;;4.81;;
68942;SDS011;60852;52.190;4.422;2024-03-23T13:02:34;7.05;;;4.71;;
68942;SDS011;60852;52.190;4.422;2024-03-23T13:05:00;7.36;;;5.02;;
68942;SDS011;60852;52.190;4.422;2024-03-23T13:07:25;7.11;;;4.80;;
68942;SDS011;60852;52.190;4.422;2024-03-23T13:09:51;6.50;;;4.53;;
68942;SDS011;60852;52.190;4.422;2024-03-23T13:12:17;5.86;;;4.11;;
68942;SDS011;60852;52.190;4.422;2024-03-23T13:14:49;6.89;;;4.71;;
68942;SDS011;60852;52.190;4.422;2024-03-23T13:17:14;6.14;;;4.20;;
68942;SDS011;60852;52.190;4.422;2024-03-23T13:19:40;6.53;;;4.43;;
68942;SDS011;60852;52.190;4.422;2024-03-23T13:22:06;6.42;;;4.32;;
68942;SDS011;60852;52.190;4.422;2024-03-23T13:24:31;6.58;;;4.39;;
68942;SDS011;60852;52.190;4.422;2024-03-23T13:26:57;6.61;;;4.41;;
68942;SDS011;60852;52.190;4.422;2024-03-23T13:29:23;6.56;;;4.41;;
68942;SDS011;60852;52.190;4.422;2024-03-23T13:31:50;6.39;;;4.30;;
68942;SDS011;60852;52.190;4.422;2024-03-23T13:34:16;6.22;;;4.16;;
68942;SDS011;60852;52.190;4.422;2024-03-23T13:36:43;7.16;;;4.71;;
68942;SDS011;60852;52.190;4.422;2024-03-23T13:39:10;7.51;;;4.95;;
68942;SDS011;60852;52.190;4.422;2024-03-23T13:41:37;6.42;;;4.24;;
68942;SDS011;60852;52.190;4.422;2024-03-23T13:44:02;6.29;;;4.09;;
68942;SDS011;60852;52.190;4.422;2024-03-23T13:46:28;6.34;;;4.15;;
68942;SDS011;60852;52.190;4.422;2024-03-23T13:48:54;6.39;;;4.15;;
68942;SDS011;60852;52.190;4.422;2024-03-23T13:51:23;7.45;;;4.83;;
68942;SDS011;60852;52.190;4.422;2024-03-23T13:53:50;7.84;;;5.04;;
68942;SDS011;60852;52.190;4.422;2024-03-23T13:56:15;7.88;;;5.07;;
68942;SDS011;60852;52.190;4.422;2024-03-23T13:58:41;7.59;;;4.99;;
68942;SDS011;60852;52.190;4.422;2024-03-23T14:01:10;6.44;;;4.27;;
68942;SDS011;60852;52.190;4.422;2024-03-23T14:03:36;6.76;;;4.50;;
68942;SDS011;60852;52.190;4.422;2024-03-23T14:06:01;7.66;;;5.03;;
68942;SDS011;60852;52.190;4.422;2024-03-23T14:08:28;8.51;;;5.40;;
68942;SDS011;60852;52.190;4.422;2024-03-23T14:10:53;9.13;;;5.73;;
68942;SDS011;60852;52.190;4.422;2024-03-23T14:13:19;8.46;;;5.28;;
68942;SDS011;60852;52.190;4.422;2024-03-23T14:15:45;9.42;;;5.83;;
68942;SDS011;60852;52.190;4.422;2024-03-23T14:18:10;9.79;;;5.98;;
68942;SDS011;60852;52.190;4.422;2024-03-23T14:20:36;9.36;;;5.78;;
68942;SDS011;60852;52.190;4.422;2024-03-23T14:23:01;8.44;;;5.33;;
68942;SDS011;60852;52.190;4.422;2024-03-23T14:25:26;7.93;;;4.99;;
68942;SDS011;60852;52.190;4.422;2024-03-23T14:27:54;7.97;;;5.08;;
68942;SDS011;60852;52.190;4.422;2024-03-23T14:30:20;8.27;;;5.30;;
68942;SDS011;60852;52.190;4.422;2024-03-23T14:32:45;6.96;;;4.57;;
68942;SDS011;60852;52.190;4.422;2024-03-23T14:35:11;6.41;;;4.26;;
68942;SDS011;60852;52.190;4.422;2024-03-23T14:37:37;6.93;;;4.64;;
68942;SDS011;60852;52.190;4.422;2024-03-23T14:40:03;6.21;;;4.28;;
68942;SDS011;60852;52.190;4.422;2024-03-23T14:42:29;6.34;;;4.28;;
68942;SDS011;60852;52.190;4.422;2024-03-23T14:44:56;7.24;;;4.84;;
68942;SDS011;60852;52.190;4.422;2024-03-23T14:47:22;6.88;;;4.53;;
68942;SDS011;60852;52.190;4.422;2024-03-23T14:49:47;7.13;;;4.63;;
68942;SDS011;60852;52.190;4.422;2024-03-23T14:52:13;6.42;;;4.24;;
68942;SDS011;60852;52.190;4.422;2024-03-23T14:54:39;7.08;;;4.60;;
68942;SDS011;60852;52.190;4.422;2024-03-23T14:57:05;7.71;;;4.94;;
68942;SDS011;60852;52.190;4.422;2024-03-23T14:59:34;7.27;;;4.61;;
68942;SDS011;60852;52.190;4.422;2024-03-23T15:02:00;7.44;;;4.71;;
68942;SDS011;60852;52.190;4.422;2024-03-23T15:04:25;7.12;;;4.52;;
68942;SDS011;60852;52.190;4.422;2024-03-23T15:06:51;6.82;;;4.45;;
68942;SDS011;60852;52.190;4.422;2024-03-23T15:09:16;7.23;;;4.66;;
68942;SDS011;60852;52.190;4.422;2024-03-23T15:11:42;7.56;;;4.91;;
68942;SDS011;60852;52.190;4.422;2024-03-23T15:14:07;6.98;;;4.50;;
68942;SDS011;60852;52.190;4.422;2024-03-23T15:16:33;8.58;;;5.46;;
68942;SDS011;60852;52.190;4.422;2024-03-23T15:18:58;6.82;;;4.41;;
68942;SDS011;60852;52.190;4.422;2024-03-23T15:21:24;6.83;;;4.41;;
68942;SDS011;60852;52.190;4.422;2024-03-23T15:23:49;6.89;;;4.52;;
68942;SDS011;60852;52.190;4.422;2024-03-23T15:26:15;6.31;;;4.10;;
68942;SDS011;60852;52.190;4.422;2024-03-23T15:28:43;3.06;;;2.02;;
68942;SDS011;60852;52.190;4.422;2024-03-23T15:31:22;4.31;;;2.85;;
68942;SDS011;60852;52.190;4.422;2024-03-23T15:33:48;4.73;;;3.11;;
68942;SDS011;60852;52.190;4.422;2024-03-23T15:36:13;4.53;;;3.01;;
68942;SDS011;60852;52.190;4.422;2024-03-23T15:38:39;5.21;;;3.43;;
68942;SDS011;60852;52.190;4.422;2024-03-23T15:41:04;6.35;;;4.27;;
68942;SDS011;60852;52.190;4.422;2024-03-23T15:43:30;5.88;;;4.06;;
68942;SDS011;60852;52.190;4.422;2024-03-23T15:46:02;6.05;;;4.14;;
68942;SDS011;60852;52.190;4.422;2024-03-23T15:48:29;6.63;;;4.45;;